sensor_id;sensor_type;location;lat;lon;timestamp;P1;durP1;ratioP1;P2;durP2;ratioP2
28022;SDS011;67403;50.104;8.758;2023-05-07T00:02:27;6.20;;;2.40;;
28022;SDS011;67403;50.104;8.758;2023-05-07T00:04:54;3.90;;;1.88;;
28022;SDS011;67403;50.104;8.758;2023-05-07T00:07:21;2.88;;;2.13;;
28022;SDS011;67403;50.104;8.758;2023-05-07T00:09:48;4.68;;;2.38;;
28022;SDS011;67403;50.104;8.758;2023-05-07T00:12:15;3.50;;;2.00;;
28022;SDS011;67403;50.104;8.758;2023-05-07T00:14:42;2.63;;;1.98;;
28022;SDS011;67403;50.104;8.758;2023-05-07T00:17:10;3.00;;;2.17;;
28022;SDS011;67403;50.104;8.758;2023-05-07T00:19:37;2.83;;;2.28;;
28022;SDS011;67403;50.104;8.758;2023-05-07T00:22:04;3.67;;;2.40;;
28022;SDS011;67403;50.104;8.758;2023-05-07T00:24:55;2.80;;;2.22;;
28022;SDS011;67403;50.104;8.758;2023-05-07T00:27:22;2.60;;;2.00;;
28022;SDS011;67403;50.104;8.758;2023-05-07T00:29:49;2.88;;;2.53;;
28022;SDS011;67403;50.104;8.758;2023-05-07T00:32:18;2.50;;;2.30;;
28022;SDS011;67403;50.104;8.758;2023-05-07T00:34:45;4.07;;;2.10;;
28022;SDS011;67403;50.104;8.758;2023-05-07T00:37:12;4.15;;;2.45;;
28022;SDS011;67403;50.104;8.758;2023-05-07T00:39:38;2.50;;;2.00;;
28022;SDS011;67403;50.104;8.758;2023-05-07T00:42:05;4.43;;;2.00;;
28022;SDS011;67403;50.104;8.758;2023-05-07T00:44:33;6.07;;;2.72;;
28022;SDS011;67403;50.104;8.758;2023-05-07T00:47:00;2.85;;;2.20;;
28022;SDS011;67403;50.104;8.758;2023-05-07T00:49:32;3.08;;;2.13;;
28022;SDS011;67403;50.104;8.758;2023-05-07T00:52:03;2.65;;;2.13;;
28022;SDS011;67403;50.104;8.758;2023-05-07T00:54:31;4.10;;;2.28;;
28022;SDS011;67403;50.104;8.758;2023-05-07T00:56:59;5.03;;;2.40;;
28022;SDS011;67403;50.104;8.758;2023-05-07T00:59:28;3.72;;;2.30;;
28022;SDS011;67403;50.104;8.758;2023-05-07T01:01:54;6.18;;;2.83;;
28022;SDS011;67403;50.104;8.758;2023-05-07T01:04:21;3.78;;;2.33;;
28022;SDS011;67403;50.104;8.758;2023-05-07T01:06:50;3.70;;;2.40;;
28022;SDS011;67403;50.104;8.758;2023-05-07T01:09:18;2.17;;;1.98;;
28022;SDS011;67403;50.104;8.758;2023-05-07T01:11:46;3.08;;;2.53;;
28022;SDS011;67403;50.104;8.758;2023-05-07T01:14:14;2.70;;;2.28;;
28022;SDS011;67403;50.104;8.758;2023-05-07T01:16:41;4.75;;;2.40;;
28022;SDS011;67403;50.104;8.758;2023-05-07T01:19:08;3.95;;;2.63;;
28022;SDS011;67403;50.104;8.758;2023-05-07T01:21:36;3.53;;;2.60;;
28022;SDS011;67403;50.104;8.758;2023-05-07T01:24:06;3.55;;;2.38;;
28022;SDS011;67403;50.104;8.758;2023-05-07T01:26:33;2.50;;;2.30;;
28022;SDS011;67403;50.104;8.758;2023-05-07T01:29:00;3.10;;;2.47;;
28022;SDS011;67403;50.104;8.758;2023-05-07T01:31:27;2.47;;;2.28;;
28022;SDS011;67403;50.104;8.758;2023-05-07T01:33:55;3.58;;;2.70;;
28022;SDS011;67403;50.104;8.758;2023-05-07T01:36:23;5.43;;;2.22;;
28022;SDS011;67403;50.104;8.758;2023-05-07T01:38:52;7.18;;;2.47;;
28022;SDS011;67403;50.104;8.758;2023-05-07T01:41:21;6.88;;;2.65;;
28022;SDS011;67403;50.104;8.758;2023-05-07T01:43:48;5.25;;;2.13;;
28022;SDS011;67403;50.104;8.758;2023-05-07T01:46:17;3.33;;;2.20;;
28022;SDS011;67403;50.104;8.758;2023-05-07T01:48:44;6.10;;;2.47;;
28022;SDS011;67403;50.104;8.758;2023-05-07T01:51:11;4.20;;;2.83;;
28022;SDS011;67403;50.104;8.758;2023-05-07T01:53:39;5.03;;;2.40;;
28022;SDS011;67403;50.104;8.758;2023-05-07T01:56:07;5.25;;;2.70;;
28022;SDS011;67403;50.104;8.758;2023-05-07T01:58:35;3.45;;;2.35;;
28022;SDS011;67403;50.104;8.758;2023-05-07T02:01:02;3.17;;;2.67;;
28022;SDS011;67403;50.104;8.758;2023-05-07T02:03:29;2.92;;;2.20;;
28022;SDS011;67403;50.104;8.758;2023-05-07T02:05:56;4.18;;;2.55;;
28022;SDS011;67403;50.104;8.758;2023-05-07T02:08:23;3.70;;;2.85;;
28022;SDS011;67403;50.104;8.758;2023-05-07T02:10:50;4.50;;;2.63;;
28022;SDS011;67403;50.104;8.758;2023-05-07T02:13:17;4.50;;;2.72;;
28022;SDS011;67403;50.104;8.758;2023-05-07T02:15:46;3.22;;;2.30;;
28022;SDS011;67403;50.104;8.758;2023-05-07T02:18:15;5.60;;;2.50;;
28022;SDS011;67403;50.104;8.758;2023-05-07T02:20:43;3.17;;;2.22;;
28022;SDS011;67403;50.104;8.758;2023-05-07T02:23:10;3.92;;;2.35;;
28022;SDS011;67403;50.104;8.758;2023-05-07T02:25:36;3.92;;;2.50;;
28022;SDS011;67403;50.104;8.758;2023-05-07T02:28:04;5.85;;;2.83;;
28022;SDS011;67403;50.104;8.758;2023-05-07T02:30:31;3.55;;;2.53;;
28022;SDS011;67403;50.104;8.758;2023-05-07T02:32:59;4.88;;;2.60;;
28022;SDS011;67403;50.104;8.758;2023-05-07T02:35:26;3.03;;;2.60;;
28022;SDS011;67403;50.104;8.758;2023-05-07T02:37:53;5.35;;;3.17;;
28022;SDS011;67403;50.104;8.758;2023-05-07T02:40:20;3.30;;;2.50;;
28022;SDS011;67403;50.104;8.758;2023-05-07T02:42:47;4.78;;;2.90;;
28022;SDS011;67403;50.104;8.758;2023-05-07T02:45:14;4.72;;;2.55;;
28022;SDS011;67403;50.104;8.758;2023-05-07T02:47:41;5.70;;;2.78;;
28022;SDS011;67403;50.104;8.758;2023-05-07T02:50:10;3.42;;;2.67;;
28022;SDS011;67403;50.104;8.758;2023-05-07T02:52:37;3.78;;;2.42;;
28022;SDS011;67403;50.104;8.758;2023-05-07T02:55:04;3.10;;;2.60;;
28022;SDS011;67403;50.104;8.758;2023-05-07T02:57:32;4.20;;;2.65;;
28022;SDS011;67403;50.104;8.758;2023-05-07T02:59:59;5.05;;;2.60;;
28022;SDS011;67403;50.104;8.758;2023-05-07T03:02:25;4.50;;;2.88;;
28022;SDS011;67403;50.104;8.758;2023-05-07T03:04:52;5.15;;;2.60;;
28022;SDS011;67403;50.104;8.758;2023-05-07T03:07:20;4.30;;;3.00;;
28022;SDS011;67403;50.104;8.758;2023-05-07T03:09:47;3.88;;;2.60;;
28022;SDS011;67403;50.104;8.758;2023-05-07T03:12:14;3.72;;;2.63;;
28022;SDS011;67403;50.104;8.758;2023-05-07T03:14:41;5.22;;;3.00;;
28022;SDS011;67403;50.104;8.758;2023-05-07T03:17:08;4.80;;;2.83;;
28022;SDS011;67403;50.104;8.758;2023-05-07T03:19:35;4.43;;;3.10;;
28022;SDS011;67403;50.104;8.758;2023-05-07T03:22:02;3.33;;;2.70;;
28022;SDS011;67403;50.104;8.758;2023-05-07T03:24:30;5.82;;;3.00;;
28022;SDS011;67403;50.104;8.758;2023-05-07T03:26:57;5.05;;;2.67;;
28022;SDS011;67403;50.104;8.758;2023-05-07T03:29:24;4.45;;;2.35;;
28022;SDS011;67403;50.104;8.758;2023-05-07T03:31:50;8.20;;;2.70;;
28022;SDS011;67403;50.104;8.758;2023-05-07T03:34:17;2.92;;;2.47;;
28022;SDS011;67403;50.104;8.758;2023-05-07T03:36:47;4.00;;;2.63;;
28022;SDS011;67403;50.104;8.758;2023-05-07T03:39:14;3.88;;;2.70;;
28022;SDS011;67403;50.104;8.758;2023-05-07T03:41:42;4.55;;;2.80;;
28022;SDS011;67403;50.104;8.758;2023-05-07T03:44:09;3.47;;;2.40;;
28022;SDS011;67403;50.104;8.758;2023-05-07T03:46:36;3.28;;;2.47;;
28022;SDS011;67403;50.104;8.758;2023-05-07T03:49:03;3.55;;;2.40;;
28022;SDS011;67403;50.104;8.758;2023-05-07T03:51:30;3.67;;;2.58;;
28022;SDS011;67403;50.104;8.758;2023-05-07T03:53:56;3.05;;;2.47;;
28022;SDS011;67403;50.104;8.758;2023-05-07T03:56:23;3.47;;;2.55;;
28022;SDS011;67403;50.104;8.758;2023-05-07T03:58:53;2.85;;;2.55;;
28022;SDS011;67403;50.104;8.758;2023-05-07T04:01:20;3.83;;;2.50;;
28022;SDS011;67403;50.104;8.758;2023-05-07T04:03:46;7.78;;;3.00;;
28022;SDS011;67403;50.104;8.758;2023-05-07T04:06:15;3.85;;;2.75;;
28022;SDS011;67403;50.104;8.758;2023-05-07T04:08:42;5.35;;;2.70;;
28022;SDS011;67403;50.104;8.758;2023-05-07T04:11:09;3.55;;;2.72;;
28022;SDS011;67403;50.104;8.758;2023-05-07T04:13:36;4.25;;;2.53;;
28022;SDS011;67403;50.104;8.758;2023-05-07T04:16:05;3.55;;;2.47;;
28022;SDS011;67403;50.104;8.758;2023-05-07T04:18:32;3.35;;;2.65;;
28022;SDS011;67403;50.104;8.758;2023-05-07T04:20:59;4.38;;;2.58;;
28022;SDS011;67403;50.104;8.758;2023-05-07T04:23:26;3.83;;;2.65;;
28022;SDS011;67403;50.104;8.758;2023-05-07T04:25:53;5.05;;;2.28;;
28022;SDS011;67403;50.104;8.758;2023-05-07T04:28:20;4.00;;;2.65;;
28022;SDS011;67403;50.104;8.758;2023-05-07T04:30:47;8.10;;;2.92;;
28022;SDS011;67403;50.104;8.758;2023-05-07T04:33:15;3.85;;;2.72;;
28022;SDS011;67403;50.104;8.758;2023-05-07T04:35:42;3.42;;;2.63;;
28022;SDS011;67403;50.104;8.758;2023-05-07T04:38:09;3.03;;;2.45;;
28022;SDS011;67403;50.104;8.758;2023-05-07T04:40:36;7.22;;;2.90;;
28022;SDS011;67403;50.104;8.758;2023-05-07T04:43:04;4.30;;;2.78;;
28022;SDS011;67403;50.104;8.758;2023-05-07T04:45:31;3.00;;;2.35;;
28022;SDS011;67403;50.104;8.758;2023-05-07T04:47:58;6.28;;;3.03;;
28022;SDS011;67403;50.104;8.758;2023-05-07T04:50:26;4.45;;;3.08;;
28022;SDS011;67403;50.104;8.758;2023-05-07T04:52:53;3.50;;;2.85;;
28022;SDS011;67403;50.104;8.758;2023-05-07T04:55:20;3.65;;;2.55;;
28022;SDS011;67403;50.104;8.758;2023-05-07T04:57:47;5.18;;;2.90;;
28022;SDS011;67403;50.104;8.758;2023-05-07T05:00:14;5.32;;;3.20;;
28022;SDS011;67403;50.104;8.758;2023-05-07T05:02:41;4.35;;;2.75;;
28022;SDS011;67403;50.104;8.758;2023-05-07T05:05:08;4.00;;;2.40;;
28022;SDS011;67403;50.104;8.758;2023-05-07T05:07:37;4.00;;;2.97;;
28022;SDS011;67403;50.104;8.758;2023-05-07T05:10:04;3.72;;;2.55;;
28022;SDS011;67403;50.104;8.758;2023-05-07T05:12:32;3.88;;;2.83;;
28022;SDS011;67403;50.104;8.758;2023-05-07T05:14:59;4.63;;;2.88;;
28022;SDS011;67403;50.104;8.758;2023-05-07T05:17:25;3.72;;;2.72;;
28022;SDS011;67403;50.104;8.758;2023-05-07T05:19:52;4.07;;;2.90;;
28022;SDS011;67403;50.104;8.758;2023-05-07T05:22:20;3.53;;;2.83;;
28022;SDS011;67403;50.104;8.758;2023-05-07T05:24:49;3.83;;;2.70;;
28022;SDS011;67403;50.104;8.758;2023-05-07T05:27:15;4.60;;;2.50;;
28022;SDS011;67403;50.104;8.758;2023-05-07T05:29:42;3.17;;;2.47;;
28022;SDS011;67403;50.104;8.758;2023-05-07T05:32:09;5.93;;;2.78;;
28022;SDS011;67403;50.104;8.758;2023-05-07T05:34:36;3.90;;;2.80;;
28022;SDS011;67403;50.104;8.758;2023-05-07T05:37:03;3.85;;;2.83;;
28022;SDS011;67403;50.104;8.758;2023-05-07T05:39:30;4.03;;;3.00;;
28022;SDS011;67403;50.104;8.758;2023-05-07T05:41:58;3.45;;;3.00;;
28022;SDS011;67403;50.104;8.758;2023-05-07T05:44:25;4.50;;;2.70;;
28022;SDS011;67403;50.104;8.758;2023-05-07T05:46:52;3.70;;;3.22;;
28022;SDS011;67403;50.104;8.758;2023-05-07T05:49:20;4.70;;;2.92;;
28022;SDS011;67403;50.104;8.758;2023-05-07T05:51:47;4.47;;;2.60;;
28022;SDS011;67403;50.104;8.758;2023-05-07T05:54:14;4.80;;;3.20;;
28022;SDS011;67403;50.104;8.758;2023-05-07T05:56:41;3.15;;;2.65;;
28022;SDS011;67403;50.104;8.758;2023-05-07T05:59:09;4.72;;;3.03;;
28022;SDS011;67403;50.104;8.758;2023-05-07T06:01:37;5.97;;;3.00;;
28022;SDS011;67403;50.104;8.758;2023-05-07T06:04:03;4.88;;;3.20;;
28022;SDS011;67403;50.104;8.758;2023-05-07T06:06:30;3.40;;;2.83;;
28022;SDS011;67403;50.104;8.758;2023-05-07T06:08:57;3.38;;;3.00;;
28022;SDS011;67403;50.104;8.758;2023-05-07T06:11:24;4.50;;;3.00;;
28022;SDS011;67403;50.104;8.758;2023-05-07T06:13:52;3.67;;;3.03;;
28022;SDS011;67403;50.104;8.758;2023-05-07T06:16:20;6.90;;;2.90;;
28022;SDS011;67403;50.104;8.758;2023-05-07T06:18:47;4.38;;;3.45;;
28022;SDS011;67403;50.104;8.758;2023-05-07T06:21:14;4.60;;;2.60;;
28022;SDS011;67403;50.104;8.758;2023-05-07T06:23:41;5.85;;;3.13;;
28022;SDS011;67403;50.104;8.758;2023-05-07T06:26:07;3.92;;;3.22;;
28022;SDS011;67403;50.104;8.758;2023-05-07T06:28:34;5.72;;;3.30;;
28022;SDS011;67403;50.104;8.758;2023-05-07T06:31:11;4.47;;;2.95;;
28022;SDS011;67403;50.104;8.758;2023-05-07T06:33:40;4.45;;;3.20;;
28022;SDS011;67403;50.104;8.758;2023-05-07T06:36:07;7.97;;;3.90;;
28022;SDS011;67403;50.104;8.758;2023-05-07T06:38:34;5.25;;;3.60;;
28022;SDS011;67403;50.104;8.758;2023-05-07T06:41:01;4.65;;;3.25;;
28022;SDS011;67403;50.104;8.758;2023-05-07T06:43:28;5.15;;;3.42;;
28022;SDS011;67403;50.104;8.758;2023-05-07T06:45:55;4.25;;;3.45;;
28022;SDS011;67403;50.104;8.758;2023-05-07T06:48:22;4.85;;;3.30;;
28022;SDS011;67403;50.104;8.758;2023-05-07T06:50:50;3.58;;;2.97;;
28022;SDS011;67403;50.104;8.758;2023-05-07T06:53:17;5.63;;;3.63;;
28022;SDS011;67403;50.104;8.758;2023-05-07T06:55:44;4.63;;;3.20;;
28022;SDS011;67403;50.104;8.758;2023-05-07T06:58:11;8.13;;;3.80;;
28022;SDS011;67403;50.104;8.758;2023-05-07T07:00:38;5.03;;;3.60;;
28022;SDS011;67403;50.104;8.758;2023-05-07T07:03:06;4.75;;;3.13;;
28022;SDS011;67403;50.104;8.758;2023-05-07T07:05:33;6.00;;;4.18;;
28022;SDS011;67403;50.104;8.758;2023-05-07T07:08:01;9.65;;;3.58;;
28022;SDS011;67403;50.104;8.758;2023-05-07T07:10:28;4.75;;;3.80;;
28022;SDS011;67403;50.104;8.758;2023-05-07T07:12:54;6.78;;;3.63;;
28022;SDS011;67403;50.104;8.758;2023-05-07T07:15:22;6.85;;;3.72;;
28022;SDS011;67403;50.104;8.758;2023-05-07T07:17:50;5.78;;;3.75;;
28022;SDS011;67403;50.104;8.758;2023-05-07T07:20:17;5.32;;;3.85;;
28022;SDS011;67403;50.104;8.758;2023-05-07T07:22:44;5.30;;;3.80;;
28022;SDS011;67403;50.104;8.758;2023-05-07T07:25:12;6.50;;;3.42;;
28022;SDS011;67403;50.104;8.758;2023-05-07T07:27:39;3.33;;;2.92;;
28022;SDS011;67403;50.104;8.758;2023-05-07T07:30:07;5.82;;;3.22;;
28022;SDS011;67403;50.104;8.758;2023-05-07T07:32:34;4.57;;;3.45;;
28022;SDS011;67403;50.104;8.758;2023-05-07T07:35:01;3.65;;;3.22;;
28022;SDS011;67403;50.104;8.758;2023-05-07T07:37:28;3.50;;;3.17;;
28022;SDS011;67403;50.104;8.758;2023-05-07T07:39:55;3.95;;;3.25;;
28022;SDS011;67403;50.104;8.758;2023-05-07T07:42:23;4.93;;;3.72;;
28022;SDS011;67403;50.104;8.758;2023-05-07T07:44:50;3.78;;;3.17;;
28022;SDS011;67403;50.104;8.758;2023-05-07T07:47:17;3.92;;;3.53;;
28022;SDS011;67403;50.104;8.758;2023-05-07T07:49:44;4.72;;;3.75;;
28022;SDS011;67403;50.104;8.758;2023-05-07T07:52:11;4.63;;;3.53;;
28022;SDS011;67403;50.104;8.758;2023-05-07T07:54:38;4.35;;;3.78;;
28022;SDS011;67403;50.104;8.758;2023-05-07T07:57:04;4.15;;;3.75;;
28022;SDS011;67403;50.104;8.758;2023-05-07T07:59:33;5.80;;;3.72;;
28022;SDS011;67403;50.104;8.758;2023-05-07T08:01:59;5.18;;;4.10;;
28022;SDS011;67403;50.104;8.758;2023-05-07T08:04:26;4.68;;;4.13;;
28022;SDS011;67403;50.104;8.758;2023-05-07T08:06:53;5.20;;;3.60;;
28022;SDS011;67403;50.104;8.758;2023-05-07T08:09:21;4.05;;;3.40;;
28022;SDS011;67403;50.104;8.758;2023-05-07T08:11:48;4.50;;;3.83;;
28022;SDS011;67403;50.104;8.758;2023-05-07T08:14:15;5.60;;;3.50;;
28022;SDS011;67403;50.104;8.758;2023-05-07T08:16:43;4.43;;;3.67;;
28022;SDS011;67403;50.104;8.758;2023-05-07T08:19:10;5.63;;;3.40;;
28022;SDS011;67403;50.104;8.758;2023-05-07T08:21:38;6.00;;;3.30;;
28022;SDS011;67403;50.104;8.758;2023-05-07T08:24:06;4.05;;;3.35;;
28022;SDS011;67403;50.104;8.758;2023-05-07T08:26:33;5.70;;;3.83;;
28022;SDS011;67403;50.104;8.758;2023-05-07T08:29:01;4.25;;;3.55;;
28022;SDS011;67403;50.104;8.758;2023-05-07T08:31:28;5.18;;;3.38;;
28022;SDS011;67403;50.104;8.758;2023-05-07T08:33:56;5.10;;;3.83;;
28022;SDS011;67403;50.104;8.758;2023-05-07T08:36:23;4.25;;;3.58;;
28022;SDS011;67403;50.104;8.758;2023-05-07T08:38:50;3.83;;;3.40;;
28022;SDS011;67403;50.104;8.758;2023-05-07T08:41:17;3.42;;;3.03;;
28022;SDS011;67403;50.104;8.758;2023-05-07T08:43:47;4.53;;;3.17;;
28022;SDS011;67403;50.104;8.758;2023-05-07T08:46:16;3.67;;;3.37;;
28022;SDS011;67403;50.104;8.758;2023-05-07T08:48:44;4.35;;;3.28;;
28022;SDS011;67403;50.104;8.758;2023-05-07T08:51:18;4.85;;;3.67;;
28022;SDS011;67403;50.104;8.758;2023-05-07T08:54:02;5.32;;;3.40;;
28022;SDS011;67403;50.104;8.758;2023-05-07T08:56:30;7.72;;;4.00;;
28022;SDS011;67403;50.104;8.758;2023-05-07T08:58:56;4.43;;;3.88;;
28022;SDS011;67403;50.104;8.758;2023-05-07T09:01:24;6.15;;;3.85;;
28022;SDS011;67403;50.104;8.758;2023-05-07T09:03:51;3.78;;;3.35;;
28022;SDS011;67403;50.104;8.758;2023-05-07T09:06:20;4.18;;;3.70;;
28022;SDS011;67403;50.104;8.758;2023-05-07T09:08:51;4.93;;;3.22;;
28022;SDS011;67403;50.104;8.758;2023-05-07T09:11:19;4.00;;;3.55;;
28022;SDS011;67403;50.104;8.758;2023-05-07T09:13:47;6.72;;;4.68;;
28022;SDS011;67403;50.104;8.758;2023-05-07T09:16:15;8.65;;;5.05;;
28022;SDS011;67403;50.104;8.758;2023-05-07T09:18:42;4.13;;;3.70;;
28022;SDS011;67403;50.104;8.758;2023-05-07T09:21:10;5.22;;;3.53;;
28022;SDS011;67403;50.104;8.758;2023-05-07T09:23:39;4.03;;;3.33;;
28022;SDS011;67403;50.104;8.758;2023-05-07T09:26:06;4.68;;;3.78;;
28022;SDS011;67403;50.104;8.758;2023-05-07T09:28:37;6.50;;;3.45;;
28022;SDS011;67403;50.104;8.758;2023-05-07T09:31:06;4.13;;;3.47;;
28022;SDS011;67403;50.104;8.758;2023-05-07T09:33:33;6.47;;;3.83;;
28022;SDS011;67403;50.104;8.758;2023-05-07T09:36:02;4.20;;;3.70;;
28022;SDS011;67403;50.104;8.758;2023-05-07T09:38:30;4.70;;;4.22;;
28022;SDS011;67403;50.104;8.758;2023-05-07T09:41:02;7.75;;;4.05;;
28022;SDS011;67403;50.104;8.758;2023-05-07T09:43:31;4.32;;;3.90;;
28022;SDS011;67403;50.104;8.758;2023-05-07T09:46:01;4.13;;;3.65;;
28022;SDS011;67403;50.104;8.758;2023-05-07T09:48:29;6.05;;;3.97;;
28022;SDS011;67403;50.104;8.758;2023-05-07T09:50:58;4.85;;;3.75;;
28022;SDS011;67403;50.104;8.758;2023-05-07T09:53:29;4.97;;;3.58;;
28022;SDS011;67403;50.104;8.758;2023-05-07T09:55:57;6.20;;;3.60;;
28022;SDS011;67403;50.104;8.758;2023-05-07T09:58:27;4.82;;;3.90;;
28022;SDS011;67403;50.104;8.758;2023-05-07T10:00:54;3.95;;;3.55;;
28022;SDS011;67403;50.104;8.758;2023-05-07T10:03:23;4.00;;;3.58;;
28022;SDS011;67403;50.104;8.758;2023-05-07T10:08:20;3.40;;;3.13;;
28022;SDS011;67403;50.104;8.758;2023-05-07T10:10:47;3.30;;;2.85;;
28022;SDS011;67403;50.104;8.758;2023-05-07T10:13:16;4.60;;;3.72;;
28022;SDS011;67403;50.104;8.758;2023-05-07T10:15:46;8.17;;;5.53;;
28022;SDS011;67403;50.104;8.758;2023-05-07T10:18:14;3.83;;;3.42;;
28022;SDS011;67403;50.104;8.758;2023-05-07T10:20:42;4.07;;;3.55;;
28022;SDS011;67403;50.104;8.758;2023-05-07T10:25:39;3.30;;;3.00;;
28022;SDS011;67403;50.104;8.758;2023-05-07T10:28:08;3.33;;;2.72;;
28022;SDS011;67403;50.104;8.758;2023-05-07T10:30:39;4.28;;;2.95;;
28022;SDS011;67403;50.104;8.758;2023-05-07T10:33:16;2.50;;;2.30;;
28022;SDS011;67403;50.104;8.758;2023-05-07T10:35:46;2.97;;;2.67;;
28022;SDS011;67403;50.104;8.758;2023-05-07T10:38:13;3.03;;;2.70;;
28022;SDS011;67403;50.104;8.758;2023-05-07T10:40:40;4.40;;;2.50;;
28022;SDS011;67403;50.104;8.758;2023-05-07T10:43:07;3.22;;;2.95;;
28022;SDS011;67403;50.104;8.758;2023-05-07T10:45:34;2.80;;;2.60;;
28022;SDS011;67403;50.104;8.758;2023-05-07T10:48:08;3.50;;;2.88;;
28022;SDS011;67403;50.104;8.758;2023-05-07T10:50:37;3.25;;;2.90;;
28022;SDS011;67403;50.104;8.758;2023-05-07T10:55:51;3.15;;;2.80;;
28022;SDS011;67403;50.104;8.758;2023-05-07T10:58:40;2.78;;;2.58;;
28022;SDS011;67403;50.104;8.758;2023-05-07T11:01:06;2.85;;;2.53;;
28022;SDS011;67403;50.104;8.758;2023-05-07T11:03:33;2.55;;;2.35;;
28022;SDS011;67403;50.104;8.758;2023-05-07T11:06:11;2.67;;;2.47;;
28022;SDS011;67403;50.104;8.758;2023-05-07T11:08:52;2.70;;;2.50;;
28022;SDS011;67403;50.104;8.758;2023-05-07T11:11:27;2.38;;;2.17;;
28022;SDS011;67403;50.104;8.758;2023-05-07T11:14:10;4.25;;;2.63;;
28022;SDS011;67403;50.104;8.758;2023-05-07T11:16:38;2.38;;;2.17;;
28022;SDS011;67403;50.104;8.758;2023-05-07T11:19:07;2.83;;;2.58;;
28022;SDS011;67403;50.104;8.758;2023-05-07T11:21:36;3.63;;;2.55;;
28022;SDS011;67403;50.104;8.758;2023-05-07T11:24:04;2.95;;;2.65;;
28022;SDS011;67403;50.104;8.758;2023-05-07T11:26:41;3.70;;;2.40;;
28022;SDS011;67403;50.104;8.758;2023-05-07T11:29:10;2.55;;;2.17;;
28022;SDS011;67403;50.104;8.758;2023-05-07T11:31:37;2.72;;;2.10;;
28022;SDS011;67403;50.104;8.758;2023-05-07T11:34:05;3.05;;;2.05;;
28022;SDS011;67403;50.104;8.758;2023-05-07T11:36:32;2.72;;;2.33;;
28022;SDS011;67403;50.104;8.758;2023-05-07T11:39:01;2.88;;;2.10;;
28022;SDS011;67403;50.104;8.758;2023-05-07T11:41:34;2.83;;;2.47;;
28022;SDS011;67403;50.104;8.758;2023-05-07T11:44:02;3.45;;;2.90;;
28022;SDS011;67403;50.104;8.758;2023-05-07T11:46:29;2.72;;;2.40;;
28022;SDS011;67403;50.104;8.758;2023-05-07T11:48:56;3.35;;;2.40;;
28022;SDS011;67403;50.104;8.758;2023-05-07T11:51:24;2.90;;;2.28;;
28022;SDS011;67403;50.104;8.758;2023-05-07T11:53:52;4.68;;;2.30;;
28022;SDS011;67403;50.104;8.758;2023-05-07T11:56:21;3.08;;;2.20;;
28022;SDS011;67403;50.104;8.758;2023-05-07T11:58:48;3.97;;;2.15;;
28022;SDS011;67403;50.104;8.758;2023-05-07T12:01:16;2.95;;;1.80;;
28022;SDS011;67403;50.104;8.758;2023-05-07T12:03:44;2.30;;;2.10;;
28022;SDS011;67403;50.104;8.758;2023-05-07T12:06:12;2.78;;;2.00;;
28022;SDS011;67403;50.104;8.758;2023-05-07T12:08:41;2.20;;;2.00;;
28022;SDS011;67403;50.104;8.758;2023-05-07T12:11:09;2.25;;;2.05;;
28022;SDS011;67403;50.104;8.758;2023-05-07T12:13:40;3.83;;;2.03;;
28022;SDS011;67403;50.104;8.758;2023-05-07T12:16:09;2.10;;;1.83;;
28022;SDS011;67403;50.104;8.758;2023-05-07T12:18:36;3.27;;;2.40;;
28022;SDS011;67403;50.104;8.758;2023-05-07T12:21:04;2.38;;;2.17;;
28022;SDS011;67403;50.104;8.758;2023-05-07T12:23:33;2.28;;;2.08;;
28022;SDS011;67403;50.104;8.758;2023-05-07T12:26:00;1.95;;;1.85;;
28022;SDS011;67403;50.104;8.758;2023-05-07T12:28:27;2.35;;;1.95;;
28022;SDS011;67403;50.104;8.758;2023-05-07T12:30:57;2.15;;;1.83;;
28022;SDS011;67403;50.104;8.758;2023-05-07T12:33:24;1.67;;;1.50;;
28022;SDS011;67403;50.104;8.758;2023-05-07T12:35:54;1.70;;;1.60;;
28022;SDS011;67403;50.104;8.758;2023-05-07T12:38:21;1.75;;;1.60;;
28022;SDS011;67403;50.104;8.758;2023-05-07T12:40:49;1.60;;;1.50;;
28022;SDS011;67403;50.104;8.758;2023-05-07T12:43:17;1.77;;;1.67;;
28022;SDS011;67403;50.104;8.758;2023-05-07T12:45:44;2.05;;;1.85;;
28022;SDS011;67403;50.104;8.758;2023-05-07T12:48:14;2.30;;;1.90;;
28022;SDS011;67403;50.104;8.758;2023-05-07T12:50:41;2.10;;;2.00;;
28022;SDS011;67403;50.104;8.758;2023-05-07T12:53:10;2.45;;;2.00;;
28022;SDS011;67403;50.104;8.758;2023-05-07T12:55:41;2.85;;;2.17;;
28022;SDS011;67403;50.104;8.758;2023-05-07T12:58:14;2.40;;;2.00;;
28022;SDS011;67403;50.104;8.758;2023-05-07T13:00:44;2.45;;;1.92;;
28022;SDS011;67403;50.104;8.758;2023-05-07T13:03:21;2.20;;;2.00;;
28022;SDS011;67403;50.104;8.758;2023-05-07T13:05:50;2.25;;;2.03;;
28022;SDS011;67403;50.104;8.758;2023-05-07T13:08:27;2.38;;;2.00;;
28022;SDS011;67403;50.104;8.758;2023-05-07T13:10:55;2.00;;;1.80;;
28022;SDS011;67403;50.104;8.758;2023-05-07T13:13:22;2.97;;;2.20;;
28022;SDS011;67403;50.104;8.758;2023-05-07T13:15:50;2.00;;;1.80;;
28022;SDS011;67403;50.104;8.758;2023-05-07T13:18:17;2.97;;;1.70;;
28022;SDS011;67403;50.104;8.758;2023-05-07T13:20:45;2.85;;;1.50;;
28022;SDS011;67403;50.104;8.758;2023-05-07T13:23:12;1.67;;;1.50;;
28022;SDS011;67403;50.104;8.758;2023-05-07T13:25:39;1.60;;;1.30;;
28022;SDS011;67403;50.104;8.758;2023-05-07T13:28:06;1.52;;;1.42;;
28022;SDS011;67403;50.104;8.758;2023-05-07T13:30:33;1.80;;;1.70;;
28022;SDS011;67403;50.104;8.758;2023-05-07T13:33:00;2.13;;;1.80;;
28022;SDS011;67403;50.104;8.758;2023-05-07T13:35:26;2.35;;;2.10;;
28022;SDS011;67403;50.104;8.758;2023-05-07T13:37:55;1.70;;;1.60;;
28022;SDS011;67403;50.104;8.758;2023-05-07T13:40:22;1.83;;;1.50;;
28022;SDS011;67403;50.104;8.758;2023-05-07T13:42:50;2.03;;;1.70;;
28022;SDS011;67403;50.104;8.758;2023-05-07T13:45:17;2.10;;;1.90;;
28022;SDS011;67403;50.104;8.758;2023-05-07T13:47:45;5.55;;;3.85;;
28022;SDS011;67403;50.104;8.758;2023-05-07T13:50:14;2.55;;;2.35;;
28022;SDS011;67403;50.104;8.758;2023-05-07T13:52:41;4.50;;;2.47;;
28022;SDS011;67403;50.104;8.758;2023-05-07T13:57:39;3.22;;;2.92;;
28022;SDS011;67403;50.104;8.758;2023-05-07T14:00:07;2.85;;;2.65;;
28022;SDS011;67403;50.104;8.758;2023-05-07T14:02:34;3.85;;;2.42;;
28022;SDS011;67403;50.104;8.758;2023-05-07T14:05:01;2.95;;;2.63;;
28022;SDS011;67403;50.104;8.758;2023-05-07T14:07:28;3.00;;;2.60;;
28022;SDS011;67403;50.104;8.758;2023-05-07T14:09:56;3.78;;;2.40;;
28022;SDS011;67403;50.104;8.758;2023-05-07T14:12:24;3.08;;;2.78;;
28022;SDS011;67403;50.104;8.758;2023-05-07T14:14:51;2.47;;;2.28;;
28022;SDS011;67403;50.104;8.758;2023-05-07T14:17:18;4.63;;;2.40;;
28022;SDS011;67403;50.104;8.758;2023-05-07T14:19:48;3.78;;;2.60;;
28022;SDS011;67403;50.104;8.758;2023-05-07T14:22:15;3.65;;;3.10;;
28022;SDS011;67403;50.104;8.758;2023-05-07T14:24:42;3.13;;;2.60;;
28022;SDS011;67403;50.104;8.758;2023-05-07T14:27:08;5.03;;;3.40;;
28022;SDS011;67403;50.104;8.758;2023-05-07T14:29:37;4.30;;;3.75;;
28022;SDS011;67403;50.104;8.758;2023-05-07T14:32:04;5.20;;;4.15;;
28022;SDS011;67403;50.104;8.758;2023-05-07T14:34:31;4.70;;;3.83;;
28022;SDS011;67403;50.104;8.758;2023-05-07T14:36:59;5.75;;;4.18;;
28022;SDS011;67403;50.104;8.758;2023-05-07T14:39:26;10.43;;;5.88;;
28022;SDS011;67403;50.104;8.758;2023-05-07T14:41:53;10.60;;;5.65;;
28022;SDS011;67403;50.104;8.758;2023-05-07T14:44:21;9.90;;;5.80;;
28022;SDS011;67403;50.104;8.758;2023-05-07T14:46:49;6.15;;;4.47;;
28022;SDS011;67403;50.104;8.758;2023-05-07T14:49:16;3.25;;;2.78;;
28022;SDS011;67403;50.104;8.758;2023-05-07T14:51:43;3.95;;;3.20;;
28022;SDS011;67403;50.104;8.758;2023-05-07T14:54:11;2.53;;;2.33;;
28022;SDS011;67403;50.104;8.758;2023-05-07T14:56:38;2.55;;;2.25;;
28022;SDS011;67403;50.104;8.758;2023-05-07T14:59:05;3.38;;;2.50;;
28022;SDS011;67403;50.104;8.758;2023-05-07T15:01:33;5.32;;;3.60;;
28022;SDS011;67403;50.104;8.758;2023-05-07T15:04:01;4.53;;;3.00;;